Onley, VA (23418)

12:59 PM EDT on September 22, 2014 (GMT -0400)
The Frog and PenguINN | Change Station
CLOSE
Current Station
Personal Weather Station
Location: Onley, VA
Elevation: 35 ft
Nearby Weather Stations

Elev 35 ft 37.69 °N, 75.72 °W | Updated 4 minutes ago

Partly Cloudy
Partly Cloudy
73.5 °F
Feels Like 77 °F
N
1.0
Wind Variable Wind from SSW
Gusts 1.0 mph

Today
High -- | Low -- °F
--% Chance of Precip.
Yesterday
High -- | Low -- °F
Precip. -- in
6:50 AM 6:59 PM
Waning Crescent, 2% visible
Pressure 30.00 in
Visibility 10.0 miles
Clouds Scattered Clouds 3600 ft
Heat Index 77 °F
Dew Point 58 °F
Humidity 59%
Rainfall 0.00 in
Snow Depth Not available.
UV 6 out of 12
Pollen 5.10 out of 12
Air Quality Not available.
Flu Activity Not available.
METAR KMFV 221635Z AUTO 32010G16KT 280V030 10SM SCT036 23/11 A3000 RMK AO2

More Conditions Fewer Conditions

Pressure 30.00 in
Visibility 10.0 miles
Clouds Scattered Clouds 3600 ft
Heat Index 77 °F
Dew Point 58 °F
Humidity 59%
Rainfall 0.00 in
Snow Depth Not available.
UV 6 out of 12
Pollen 5.10 out of 12
Air Quality Not available.
Flu Activity Not available.
METAR KMFV 221635Z AUTO 32010G16KT 280V030 10SM SCT036 23/11 A3000 RMK AO2

More Conditions Fewer Conditions

10-Day Weather Forecast

Almanac

Astronomy

Sep. 22, 2014 Rise Set
Actual Time 6:50 AM EDT 6:59 PM EDT
Civil Twilight 6:24 AM EDT 7:25 PM EDT
Nautical Twilight 5:53 AM EDT 7:56 PM EDT
Astronomical Twilight 5:22 AM EDT 8:27 PM EDT
Moon 5:18 AM EDT 6:05 PM EDT
Length of Visible Light 13h 01m
Length of Day
12h 09m
Tomorrow will be 2m 24s shorter.
Waning Crescent, 2% of the Moon is Illuminated
Today
Waning Crescent
Sep 24
New
Oct 1
First Quarter
Oct 8
Full
Oct 15
Last Quarter

Today's Extremes

State Highs State Lows

Community

WunderPhotos

Upload Photos

1,755,480 photos uploaded!

WunderBlogs® & News

Nearby

Snow Depth

Station Depth Elevation
No new snow has been reported.

Earthquake Activity

City Distance Mag. Time & Date
No recent earthquake activity has been reported nearby.
Minimum magnitude displayed is 2.5.

Coastal Water Temperatures

Place Temperature
Wachapreague, VA 73.9 °F
Ocean City Inlet, MD 72.0 °F
Kiptopeke, VA 78.1 °F
Bishops Head, MD 70.0 °F
Chesapeake Bay Bridge Tunnel, VA 75.0 °F
Cambridge, MD 73.0 °F

Nearby Weather Stations